• Join FlightAware (Why Join?)
  • Login
  • US Flag 
09:59PM EDT


 

Airport Tracker/Info


-or-


 

Live Flight TrackerFlight Track Log ✈ SKW5500 ✈ 06-May-2013 ✈ KASE - KDEN

Flight Track Log - Related Links

Times and Time Zones

All times are in EDT time to prevent confusion due to time zone crossing. See the SKW5500 flight status page for this flight to view local times or setup timezone preferences in your user account.

Time Position Orientation Groundspeed Altitude Reporting Facility
EDT Latitude Longitude Course Direction KTS MPH feet Rate Location/Type
06:25PM 39.3480 -106.8791 358° North  Level FlightAware Approximate
06:25PM 39.3103 -107.0206 358° North 274 315 13,300  Level Denver Center
06:26PM 39.4089 -106.7994 101° East  Level FlightAware Approximate
06:27PM 39.3924 -106.6920 101° East  Level FlightAware Approximate
06:27PM 39.3776 -106.9456 41° Northeast  Level FlightAware Approximate
06:28PM 39.3709 -106.5711 104° East  Level FlightAware Approximate
06:28PM 39.3719 -106.8533 41° Northeast 309 356 18,500  Level Denver Center
06:29PM 39.3432 -106.4531 123° Southeast  Level FlightAware Approximate
06:29PM 39.3653 -106.7336 94° East 325 374 20,800  Level Denver Center
06:30PM 39.3569 -106.5883 94° East 361 415 21,000 60 Climbing Denver Center
06:31PM 39.3522 -106.4581 93° East 376 433 21,000  Level Denver Center
06:32PM 39.3600 -106.3083 86° East 376 433 21,000 -300 Level Denver Center
06:33PM 39.3664 -106.1742 86° East 384 442 20,500 -480 Descending Denver Center
06:34PM 39.3717 -106.0431 87° East 384 442 20,100 -540 Descending Denver Center
06:35PM 39.3789 -105.8842 87° East 376 433 19,500 -540 Descending Denver Center
06:36PM 39.3847 -105.7492 87° East 373 429 19,000 -540 Descending Denver Center
06:38PM 39.4000 -105.5167 85° East 349 402 18,000 -600 Descending Denver TRACON
06:39PM 39.3956 -105.3700 92° East 311 358 17,200 -900 Descending Denver Center
06:40PM 39.3839 -105.2592 98° East 312 359 16,000 -1,080 Descending Denver Center
06:41PM 39.3736 -105.1531 97° East 301 346 15,000 -1,080 Descending Denver Center
06:42PM 39.3647 -105.0419 96° East 290 334 13,800 -1,020 Descending Denver Center
06:43PM 39.3706 -104.9511 85° East 255 293 13,000 -660 Descending Denver Center
06:45PM 39.3833 -104.8000 84° East 250 288 12,000 -720 Descending Denver TRACON
06:46PM 39.4333 -104.7500 38° Northeast 258 297 11,100 -1,020 Descending Denver TRACON
06:47PM 39.5000 -104.7000 30° Northeast 249 287 10,000 -720 Descending Denver TRACON
06:48PM 39.5667 -104.6667 21° North 246 283 9,700 -420 Descending Denver TRACON
06:48PM 39.5886 -104.6631 North 244 281 9,500 -720 Descending Denver Center
06:49PM 39.6628 -104.6628 360° North 243 280 8,700 -1,080 Descending Denver Center
06:50PM 39.7300 -104.6617 North 241 277 7,400 -1,140 Descending Denver Center
06:51PM 39.7800 -104.6611 360° North 174 200 6,400 -900 Descending Denver Center
06:52PM 39.8211 -104.6611 360° North 141 162 5,600 -780 Descending Denver Center